Nordic Philip — 5BZH2 — position and weather

sailwx.info

Track history (hours):
 
Tides and Currents Weather Stations Pressure Air Temp Water Temp Dewpoint Dewpoint Depression Visibility Wind Speed Wind Dir Waves Ship Positions

Nordic Philip

Last reported at 2016-Dec-06 14:15 UTC. Time now 2016-Dec-07 08:39 UTC.
Position N 54°48' E 019°37'.

Length 151 m; draft 6.7 m.

Type: Ship (hazmat cat A). MMSI: 212018000.

Date/timePositionNaut miles runAvg speedWind from/ knotsBaromVisibWave heightAir tempDewpointWater temp
2016-Dec-06 14:15N 54°48' E 019°37'1413.8
2016-Dec-06 13:16N 54°38' E 019°54'3 0.1
2016-Dec-04 09:17N 54°38' E 019°59'5 7.0
2016-Dec-04 08:33N 54°40' E 019°50'2 2.0
2016-Dec-04 07:33N 54°40' E 019°47'3 3.2
2016-Dec-04 06:33N 54°42' E 019°42'8 8.0
2016-Dec-04 05:33N 54°46' E 019°30'9 9.2
2016-Dec-04 04:33N 54°49' E 019°15'10 9.5
2016-Dec-04 03:33N 54°50' E 018°59'10 9.6
2016-Dec-04 02:34N 54°54' E 018°43'9 9.5
2016-Dec-04 01:33N 54°55' E 018°27'9 9.3
2016-Dec-04 00:33N 54°54' E 018°10'9 9.3
2016-Dec-03 23:33N 54°54' E 017°54'132 9.2
2016-Dec-03 09:11N 54°39' E 014°07'7 9.3
2016-Dec-03 08:27N 54°41' E 013°56'69 8.3
2016-Dec-03 00:08N 54°24' E 012°01'5 9.1
2016-Dec-02 23:34N 54°24' E 011°52'9 9.1
2016-Dec-02 22:34N 54°28' E 011°37'9 9.2
2016-Dec-02 21:33N 54°31' E 011°23'9 9.4
2016-Dec-02 20:33N 54°35' E 011°08'9 9.3
2016-Dec-02 19:33N 54°34' E 010°52'9 9.4
2016-Dec-02 18:34N 54°33' E 010°36'9 9.2
2016-Dec-02 17:33N 54°30' E 010°21'1110.6
2016-Dec-02 16:33N 54°22' E 010°09'2 2.2
2016-Dec-02 15:33N 54°22' E 010°06'7 6.7
2016-Dec-02 14:33N 54°21' E 009°55'7 7.1
2016-Dec-02 13:33N 54°19' E 009°43'7 7.2
2016-Dec-02 12:33N 54°13' E 009°36'7 6.4
2016-Dec-02 11:32N 54°10' E 009°26'7 7.5
2016-Dec-02 10:33N 54°04' E 009°19'7 7.3
2016-Dec-02 09:33N 53°57' E 009°14'5 4.9
2016-Dec-02 08:33N 53°54' E 009°09'2 1.6
2016-Dec-02 07:33N 53°53' E 009°06'10 9.7
2016-Dec-02 06:33N 53°50' E 008°50'1211.8
2016-Dec-02 05:33N 53°58' E 008°35'1212.2
2016-Dec-02 04:33N 53°60' E 008°14'12 8.9
2016-Dec-02 03:14N 53°51' E 008°00'1115.9
2016-Dec-02 02:33N 53°44' E 008°15'14 1.1
2016-Dec-01 13:18N 53°35' E 008°32'2 3.0
2016-Dec-01 12:34N 53°36' E 008°30'1616.4
2016-Dec-01 11:33N 53°47' E 008°09'1311.7
2016-Dec-01 10:29N 53°58' E 007°59'2311.8
2016-Dec-01 08:33N 53°57' E 008°38'1313.4
2016-Dec-01 07:33N 53°51' E 008°58'1212.2
2016-Dec-01 06:34N 53°52' E 009°18'1515.5
2016-Dec-01 05:34N 53°38' E 009°32'1212.0
2016-Dec-01 04:33N 53°33' E 009°50'3 3.0
2016-Dec-01 03:33N 53°32' E 009°55'0 0.0
2016-Dec-01 02:33N 53°32' E 009°55'0 0.0
2016-Dec-01 01:33N 53°32' E 009°55'0 0.0
2016-Dec-01 00:33N 53°32' E 009°55'0 0.0
2016-Nov-30 23:33N 53°32' E 009°55'0 0.0
2016-Nov-30 22:33N 53°32' E 009°55'0 0.3
2016-Nov-30 21:30N 53°32' E 009°55'0 0.0
2016-Nov-30 20:33N 53°32' E 009°55'0 0.0
2016-Nov-30 19:33N 53°32' E 009°55'0 0.0
2016-Nov-30 18:33N 53°32' E 009°55'0 0.0
2016-Nov-30 17:33N 53°32' E 009°55'0 0.0
2016-Nov-30 16:33N 53°32' E 009°55'0 0.0
2016-Nov-30 15:33N 53°32' E 009°55'0 0.0
2016-Nov-30 14:33N 53°32' E 009°55'0 0.0
2016-Nov-30 13:33N 53°32' E 009°55'0 0.0
2016-Nov-30 12:33N 53°32' E 009°55'0 0.0
2016-Nov-30 11:33N 53°32' E 009°55'0 0.0
2016-Nov-30 10:33N 53°32' E 009°55'0 0.0
2016-Nov-30 09:33N 53°32' E 009°55'0 0.0
2016-Nov-30 08:33N 53°32' E 009°55'0 0.0
2016-Nov-30 07:33N 53°32' E 009°55'0 0.0
2016-Nov-30 06:33N 53°32' E 009°55'1 0.8
2016-Nov-30 05:33N 53°32' E 009°54'2 2.0
2016-Nov-30 04:28N 53°31' E 009°56'0 0.0
2016-Nov-30 03:32N 53°31' E 009°56'0 0.0
2016-Nov-30 02:29N 53°31' E 009°56'0 0.0
2016-Nov-30 01:32N 53°31' E 009°56'0 0.0
2016-Nov-30 00:31N 53°31' E 009°56'0 0.0
2016-Nov-29 23:32N 53°31' E 009°56'0 0.0
2016-Nov-29 22:32N 53°31' E 009°56'0 0.0
2016-Nov-29 21:31N 53°31' E 009°56'0 0.0
2016-Nov-29 20:31N 53°31' E 009°56'0 0.4
2016-Nov-29 19:33N 53°31' E 009°56'3 3.5
2016-Nov-29 18:33N 53°33' E 009°51'1010.3
2016-Nov-29 17:33N 53°36' E 009°35'1312.8
2016-Nov-29 16:33N 53°47' E 009°23'1110.8
2016-Nov-29 15:33N 53°54' E 009°09'1 0.9
2016-Nov-29 14:33N 53°54' E 009°10'6 6.4
2016-Nov-29 13:33N 53°59' E 009°17'9 8.0
2016-Nov-29 12:29N 54°07' E 009°20'3 3.0
2016-Nov-29 11:28N 54°10' E 009°24'7 7.7
2016-Nov-29 10:33N 54°12' E 009°34'8 7.6
2016-Nov-29 09:33N 54°18' E 009°43'6 6.3
2016-Nov-29 08:33N 54°22' E 009°51'7 7.0
2016-Nov-29 07:33N 54°22' E 010°03'3 3.0
2016-Nov-29 06:33N 54°22' E 010°09'8 8.0
2016-Nov-29 05:34N 54°29' E 010°16'4 4.4
2016-Nov-29 04:32N 54°33' E 010°20'0 0.0
2016-Nov-29 03:32N 54°32' E 010°20'0 0.0
2016-Nov-29 02:32N 54°32' E 010°20'0 0.0
2016-Nov-29 01:26N 54°32' E 010°20'0 0.0
2016-Nov-29 00:32N 54°32' E 010°20'0 0.0
2016-Nov-28 23:32N 54°32' E 010°20'0 0.0
2016-Nov-28 22:26N 54°32' E 010°20'0 0.0
2016-Nov-28 20:14N 54°32' E 010°20'0 0.0
2016-Nov-28 19:32N 54°32' E 010°20'0 0.0
2016-Nov-28 18:32N 54°32' E 010°20'0 0.1
2016-Nov-28 17:33N 54°32' E 010°20'1312.8
2016-Nov-28 16:34N 54°35' E 010°42'1414.0
2016-Nov-28 15:33N 54°36' E 011°06'1414.0
2016-Nov-28 14:33N 54°31' E 011°28'1414.1
2016-Nov-28 13:33N 54°26' E 011°51'1313.1
2016-Nov-28 12:33N 54°30' E 012°13'5016.4
2016-Nov-28 09:29N 54°57' E 013°27'1617.6
2016-Nov-28 08:33N 55°02' E 013°54'1717.3
2016-Nov-28 07:33N 55°13' E 014°18'1717.3
2016-Nov-28 06:34N 55°26' E 014°37'1716.9
2016-Nov-28 05:34N 55°33' E 015°04'1716.6
2016-Nov-28 04:34N 55°39' E 015°32'  
Track history (hours):
 
Tides and Currents Weather Stations Pressure Air Temp Water Temp Dewpoint Dewpoint Depression Visibility Wind Speed Wind Dir Waves Ship Positions

Nordic Philip

Last reported at 2016-Dec-06 14:15 UTC. Time now 2016-Dec-07 08:39 UTC.
Position N 54°48' E 019°37'.

Length 151 m; draft 6.7 m.

Type: Ship (hazmat cat A). MMSI: 212018000.

Date/timePositionNaut miles runAvg speedWind from/ knotsBaromVisibWave heightAir tempDewpointWater temp
2016-Dec-06 14:15N 54°48' E 019°37'1413.8
2016-Dec-06 13:16N 54°38' E 019°54'3 0.1
2016-Dec-04 09:17N 54°38' E 019°59'5 7.0
2016-Dec-04 08:33N 54°40' E 019°50'2 2.0
2016-Dec-04 07:33N 54°40' E 019°47'3 3.2
2016-Dec-04 06:33N 54°42' E 019°42'8 8.0
2016-Dec-04 05:33N 54°46' E 019°30'9 9.2
2016-Dec-04 04:33N 54°49' E 019°15'10 9.5
2016-Dec-04 03:33N 54°50' E 018°59'10 9.6
2016-Dec-04 02:34N 54°54' E 018°43'9 9.5
2016-Dec-04 01:33N 54°55' E 018°27'9 9.3
2016-Dec-04 00:33N 54°54' E 018°10'9 9.3
2016-Dec-03 23:33N 54°54' E 017°54'132 9.2
2016-Dec-03 09:11N 54°39' E 014°07'7 9.3
2016-Dec-03 08:27N 54°41' E 013°56'69 8.3
2016-Dec-03 00:08N 54°24' E 012°01'5 9.1
2016-Dec-02 23:34N 54°24' E 011°52'9 9.1
2016-Dec-02 22:34N 54°28' E 011°37'9 9.2
2016-Dec-02 21:33N 54°31' E 011°23'9 9.4
2016-Dec-02 20:33N 54°35' E 011°08'9 9.3
2016-Dec-02 19:33N 54°34' E 010°52'9 9.4
2016-Dec-02 18:34N 54°33' E 010°36'9 9.2
2016-Dec-02 17:33N 54°30' E 010°21'1110.6
2016-Dec-02 16:33N 54°22' E 010°09'2 2.2
2016-Dec-02 15:33N 54°22' E 010°06'7 6.7
2016-Dec-02 14:33N 54°21' E 009°55'7 7.1
2016-Dec-02 13:33N 54°19' E 009°43'7 7.2
2016-Dec-02 12:33N 54°13' E 009°36'7 6.4
2016-Dec-02 11:32N 54°10' E 009°26'7 7.5
2016-Dec-02 10:33N 54°04' E 009°19'7 7.3
2016-Dec-02 09:33N 53°57' E 009°14'5 4.9
2016-Dec-02 08:33N 53°54' E 009°09'2 1.6
2016-Dec-02 07:33N 53°53' E 009°06'10 9.7
2016-Dec-02 06:33N 53°50' E 008°50'1211.8
2016-Dec-02 05:33N 53°58' E 008°35'1212.2
2016-Dec-02 04:33N 53°60' E 008°14'12 8.9
2016-Dec-02 03:14N 53°51' E 008°00'1115.9
2016-Dec-02 02:33N 53°44' E 008°15'14 1.1
2016-Dec-01 13:18N 53°35' E 008°32'2 3.0
2016-Dec-01 12:34N 53°36' E 008°30'1616.4
2016-Dec-01 11:33N 53°47' E 008°09'1311.7
2016-Dec-01 10:29N 53°58' E 007°59'2311.8
2016-Dec-01 08:33N 53°57' E 008°38'1313.4
2016-Dec-01 07:33N 53°51' E 008°58'1212.2
2016-Dec-01 06:34N 53°52' E 009°18'1515.5
2016-Dec-01 05:34N 53°38' E 009°32'1212.0
2016-Dec-01 04:33N 53°33' E 009°50'3 3.0
2016-Dec-01 03:33N 53°32' E 009°55'0 0.0
2016-Dec-01 02:33N 53°32' E 009°55'0 0.0
2016-Dec-01 01:33N 53°32' E 009°55'0 0.0
2016-Dec-01 00:33N 53°32' E 009°55'0 0.0
2016-Nov-30 23:33N 53°32' E 009°55'0 0.0
2016-Nov-30 22:33N 53°32' E 009°55'0 0.3
2016-Nov-30 21:30N 53°32' E 009°55'0 0.0
2016-Nov-30 20:33N 53°32' E 009°55'0 0.0
2016-Nov-30 19:33N 53°32' E 009°55'0 0.0
2016-Nov-30 18:33N 53°32' E 009°55'0 0.0
2016-Nov-30 17:33N 53°32' E 009°55'0 0.0
2016-Nov-30 16:33N 53°32' E 009°55'0 0.0
2016-Nov-30 15:33N 53°32' E 009°55'0 0.0
2016-Nov-30 14:33N 53°32' E 009°55'0 0.0
2016-Nov-30 13:33N 53°32' E 009°55'0 0.0
2016-Nov-30 12:33N 53°32' E 009°55'0 0.0
2016-Nov-30 11:33N 53°32' E 009°55'0 0.0
2016-Nov-30 10:33N 53°32' E 009°55'0 0.0
2016-Nov-30 09:33N 53°32' E 009°55'0 0.0
2016-Nov-30 08:33N 53°32' E 009°55'0 0.0
2016-Nov-30 07:33N 53°32' E 009°55'0 0.0
2016-Nov-30 06:33N 53°32' E 009°55'1 0.8
2016-Nov-30 05:33N 53°32' E 009°54'2 2.0
2016-Nov-30 04:28N 53°31' E 009°56'0 0.0
2016-Nov-30 03:32N 53°31' E 009°56'0 0.0
2016-Nov-30 02:29N 53°31' E 009°56'0 0.0
2016-Nov-30 01:32N 53°31' E 009°56'0 0.0
2016-Nov-30 00:31N 53°31' E 009°56'0 0.0
2016-Nov-29 23:32N 53°31' E 009°56'0 0.0
2016-Nov-29 22:32N 53°31' E 009°56'0 0.0
2016-Nov-29 21:31N 53°31' E 009°56'0 0.0
2016-Nov-29 20:31N 53°31' E 009°56'0 0.4
2016-Nov-29 19:33N 53°31' E 009°56'3 3.5
2016-Nov-29 18:33N 53°33' E 009°51'1010.3
2016-Nov-29 17:33N 53°36' E 009°35'1312.8
2016-Nov-29 16:33N 53°47' E 009°23'1110.8
2016-Nov-29 15:33N 53°54' E 009°09'1 0.9
2016-Nov-29 14:33N 53°54' E 009°10'6 6.4
2016-Nov-29 13:33N 53°59' E 009°17'9 8.0
2016-Nov-29 12:29N 54°07' E 009°20'3 3.0
2016-Nov-29 11:28N 54°10' E 009°24'7 7.7
2016-Nov-29 10:33N 54°12' E 009°34'8 7.6
2016-Nov-29 09:33N 54°18' E 009°43'6 6.3
2016-Nov-29 08:33N 54°22' E 009°51'7 7.0
2016-Nov-29 07:33N 54°22' E 010°03'3 3.0
2016-Nov-29 06:33N 54°22' E 010°09'8 8.0
2016-Nov-29 05:34N 54°29' E 010°16'4 4.4
2016-Nov-29 04:32N 54°33' E 010°20'0 0.0
2016-Nov-29 03:32N 54°32' E 010°20'0 0.0
2016-Nov-29 02:32N 54°32' E 010°20'0 0.0
2016-Nov-29 01:26N 54°32' E 010°20'0 0.0
2016-Nov-29 00:32N 54°32' E 010°20'0 0.0
2016-Nov-28 23:32N 54°32' E 010°20'0 0.0
2016-Nov-28 22:26N 54°32' E 010°20'0 0.0
2016-Nov-28 20:14N 54°32' E 010°20'0 0.0
2016-Nov-28 19:32N 54°32' E 010°20'0 0.0
2016-Nov-28 18:32N 54°32' E 010°20'0 0.1
2016-Nov-28 17:33N 54°32' E 010°20'1312.8
2016-Nov-28 16:34N 54°35' E 010°42'1414.0
2016-Nov-28 15:33N 54°36' E 011°06'1414.0
2016-Nov-28 14:33N 54°31' E 011°28'1414.1
2016-Nov-28 13:33N 54°26' E 011°51'1313.1
2016-Nov-28 12:33N 54°30' E 012°13'5016.4
2016-Nov-28 09:29N 54°57' E 013°27'1617.6
2016-Nov-28 08:33N 55°02' E 013°54'1717.3
2016-Nov-28 07:33N 55°13' E 014°18'1717.3
2016-Nov-28 06:34N 55°26' E 014°37'1716.9
2016-Nov-28 05:34N 55°33' E 015°04'1716.6
2016-Nov-28 04:34N 55°39' E 015°32'  

Dump ship's entire track history